Time;durP1;ratioP1;P1;durP2;ratioP2;P2;SDS_P1;SDS_P2;PMS_P1;PMS_P2;Temp;Humidity;BMP_temperature;BMP_pressure;BME280_temperature;BME280_humidity;BME280_pressure;Samples;Min_cycle;Max_cycle;Signal;HPM_P1;HPM_P2
2023/05/19 00:01:12;;;;;;;0.20;0.20;;;5.70;99.90;;;;;;5025424;28;20045;-75
2023/05/19 00:03:47;;;;;;;0.20;0.20;;;5.60;99.90;;;;;;5025206;28;20026;-76
2023/05/19 00:06:13;;;;;;;0.20;0.20;;;5.60;99.90;;;;;;5021293;28;20025;-75
2023/05/19 00:08:39;;;;;;;0.20;0.20;;;5.60;99.90;;;;;;5028471;28;20471;-75
2023/05/19 00:11:05;;;;;;;0.30;0.30;;;5.60;99.90;;;;;;5023687;28;20025;-75
2023/05/19 00:13:31;;;;;;;0.20;0.20;;;5.50;99.90;;;;;;5020227;28;20026;-76
2023/05/19 00:15:56;;;;;;;0.17;0.17;;;5.50;99.90;;;;;;5024056;28;20430;-75
2023/05/19 00:18:22;;;;;;;0.20;0.20;;;5.50;99.90;;;;;;5016831;28;20400;-75
2023/05/19 00:20:48;;;;;;;0.20;0.20;;;5.50;99.90;;;;;;5031406;28;20026;-75
2023/05/19 00:23:13;;;;;;;0.20;0.20;;;5.40;99.90;;;;;;5016016;28;20038;-75
2023/05/19 00:25:39;;;;;;;0.20;0.20;;;5.40;99.90;;;;;;5027764;28;20092;-75
2023/05/19 00:28:05;;;;;;;0.20;0.20;;;5.40;99.90;;;;;;5023832;28;20109;-75
2023/05/19 00:30:30;;;;;;;0.20;0.20;;;5.40;99.90;;;;;;5030732;28;20491;-76
2023/05/19 00:32:56;;;;;;;0.20;0.20;;;5.30;99.90;;;;;;5015915;28;20022;-75
2023/05/19 00:35:23;;;;;;;0.20;0.20;;;5.30;99.90;;;;;;5015946;28;20022;-75
2023/05/19 00:37:48;;;;;;;0.20;0.20;;;5.30;99.90;;;;;;5015975;28;20026;-76
2023/05/19 00:40:14;;;;;;;0.20;0.20;;;5.20;99.90;;;;;;5025194;28;20443;-75
2023/05/19 00:42:40;;;;;;;0.28;0.28;;;5.20;99.90;;;;;;5035563;28;20112;-75
2023/05/19 00:45:06;;;;;;;0.20;0.20;;;5.20;99.90;;;;;;5035356;28;20052;-76
2023/05/19 00:47:32;;;;;;;0.20;0.20;;;5.10;99.90;;;;;;5029341;28;20021;-75
2023/05/19 00:49:58;;;;;;;0.32;0.32;;;5.10;99.90;;;;;;5025993;28;20551;-75
2023/05/19 00:52:24;;;;;;;0.20;0.20;;;5.10;99.90;;;;;;5034910;28;20048;-75
2023/05/19 00:54:51;;;;;;;0.20;0.20;;;5.20;99.90;;;;;;5035218;28;20025;-75
2023/05/19 00:57:17;;;;;;;0.30;0.30;;;5.20;99.90;;;;;;5035580;28;20499;-75
2023/05/19 00:59:43;;;;;;;0.20;0.20;;;5.20;99.90;;;;;;5034881;28;20036;-76
2023/05/19 01:02:08;;;;;;;0.30;0.30;;;5.10;99.90;;;;;;5020548;28;20034;-76
2023/05/19 01:04:36;;;;;;;0.20;0.20;;;5.10;99.90;;;;;;5015404;28;20057;-75
2023/05/19 01:07:02;;;;;;;0.20;0.20;;;5.00;99.90;;;;;;5020335;28;20025;-75
2023/05/19 01:09:29;;;;;;;0.20;0.20;;;4.90;99.90;;;;;;5022716;28;20037;-76
2023/05/19 01:11:55;;;;;;;0.20;0.20;;;4.90;99.90;;;;;;5015209;28;20117;-75
2023/05/19 01:14:20;;;;;;;0.28;0.28;;;4.80;99.90;;;;;;5015188;28;20105;-75
2023/05/19 01:16:49;;;;;;;0.20;0.20;;;4.80;99.90;;;;;;5031282;28;20030;-75
2023/05/19 01:19:29;;;;;;;0.20;0.20;;;4.70;99.90;;;;;;5035210;28;20029;-75
2023/05/19 01:22:22;;;;;;;0.20;0.20;;;4.70;99.90;;;;;;5033971;28;20022;-75
2023/05/19 01:25:16;;;;;;;0.20;0.20;;;4.70;99.90;;;;;;5021014;28;20036;-75
2023/05/19 01:28:07;;;;;;;0.20;0.20;;;4.70;99.90;;;;;;5013726;28;20022;-75
2023/05/19 01:30:43;;;;;;;0.28;0.28;;;4.60;99.90;;;;;;5015613;28;20080;-75
2023/05/19 01:33:15;;;;;;;0.20;0.20;;;4.50;99.90;;;;;;5025913;28;20037;-75
2023/05/19 01:35:42;;;;;;;0.20;0.20;;;4.40;99.90;;;;;;5019468;28;20056;-75
2023/05/19 01:38:09;;;;;;;0.28;0.28;;;4.40;99.90;;;;;;5033287;28;20033;-75
2023/05/19 01:40:37;;;;;;;0.30;0.30;;;4.30;99.90;;;;;;5014515;28;20529;-75
2023/05/19 01:43:03;;;;;;;0.15;0.15;;;4.30;99.90;;;;;;5027883;28;20033;-75
2023/05/19 01:45:31;;;;;;;0.25;0.25;;;4.30;99.90;;;;;;5014681;28;20018;-75
2023/05/19 01:48:00;;;;;;;0.20;0.20;;;4.20;99.90;;;;;;5017558;28;20025;-76
2023/05/19 01:50:26;;;;;;;0.20;0.20;;;4.20;99.90;;;;;;5014528;28;20029;-75
2023/05/19 01:52:52;;;;;;;0.20;0.20;;;4.20;99.90;;;;;;5019136;28;20042;-75
2023/05/19 01:55:18;;;;;;;0.20;0.20;;;4.20;99.90;;;;;;5014804;28;20053;-75
2023/05/19 01:57:48;;;;;;;0.20;0.20;;;4.20;99.90;;;;;;5014993;28;20030;-75
2023/05/19 02:00:38;;;;;;;0.20;0.20;;;4.20;99.90;;;;;;5014797;28;20052;-75
2023/05/19 02:03:18;;;;;;;0.10;0.10;;;4.10;99.90;;;;;;5015488;28;20044;-75
2023/05/19 02:06:22;;;;;;;0.15;0.15;;;4.10;99.90;;;;;;5016305;28;20022;-75
2023/05/19 02:09:01;;;;;;;0.20;0.20;;;4.10;99.90;;;;;;4999454;28;20127;-74
2023/05/19 02:11:38;;;;;;;0.25;0.25;;;4.10;99.90;;;;;;5014512;28;20018;-75
2023/05/19 02:14:13;;;;;;;0.20;0.20;;;4.10;99.90;;;;;;5014247;28;20026;-75
2023/05/19 02:16:42;;;;;;;0.20;0.20;;;4.10;99.90;;;;;;5014771;28;20021;-75
2023/05/19 02:19:26;;;;;;;0.30;0.30;;;4.10;99.90;;;;;;5014086;28;20033;-75
2023/05/19 02:21:51;;;;;;;0.30;0.30;;;4.00;99.90;;;;;;5013879;28;20032;-75
2023/05/19 02:24:19;;;;;;;0.20;0.20;;;4.00;99.90;;;;;;5052081;23;20485;-72
2023/05/19 02:26:45;;;;;;;0.20;0.20;;;4.00;99.90;;;;;;5033695;28;20050;-71
2023/05/19 02:29:10;;;;;;;0.20;0.20;;;4.00;99.90;;;;;;5033805;28;20029;-71
2023/05/19 02:31:36;;;;;;;0.20;0.20;;;4.00;99.90;;;;;;5033660;28;20048;-71
2023/05/19 02:34:02;;;;;;;0.30;0.30;;;3.90;99.90;;;;;;5033265;28;20501;-71
2023/05/19 02:36:27;;;;;;;0.15;0.15;;;3.90;99.90;;;;;;5033550;28;20536;-71
2023/05/19 02:38:53;;;;;;;0.30;0.30;;;3.90;99.90;;;;;;5033568;28;20467;-71
2023/05/19 02:41:18;;;;;;;0.20;0.20;;;3.90;99.90;;;;;;5033467;28;20030;-71
2023/05/19 02:43:44;;;;;;;0.20;0.20;;;3.80;99.90;;;;;;5033897;28;20125;-71
2023/05/19 02:46:10;;;;;;;0.20;0.20;;;3.80;99.90;;;;;;5033315;28;20022;-71
2023/05/19 02:48:35;;;;;;;0.20;0.20;;;3.80;99.90;;;;;;5033541;28;20131;-71
2023/05/19 02:51:01;;;;;;;0.20;0.20;;;3.80;99.90;;;;;;5033287;28;20067;-71
2023/05/19 02:53:26;;;;;;;0.30;0.30;;;3.70;99.90;;;;;;5033217;28;20021;-71
2023/05/19 02:55:52;;;;;;;0.20;0.20;;;3.80;99.90;;;;;;5033339;28;20025;-71
2023/05/19 02:58:17;;;;;;;0.20;0.20;;;3.80;99.90;;;;;;5033462;28;20021;-71
2023/05/19 03:00:44;;;;;;;0.20;0.20;;;3.80;99.90;;;;;;5033075;28;20372;-71
2023/05/19 03:03:09;;;;;;;0.20;0.20;;;3.80;99.90;;;;;;5033305;28;20022;-71
2023/05/19 03:05:35;;;;;;;0.20;0.20;;;3.70;99.90;;;;;;5033115;28;20018;-71
2023/05/19 03:08:01;;;;;;;0.20;0.20;;;3.70;99.90;;;;;;5033115;28;20087;-71
2023/05/19 03:10:26;;;;;;;0.20;0.20;;;3.70;99.90;;;;;;5033220;28;20476;-71
2023/05/19 03:12:52;;;;;;;0.20;0.20;;;3.70;99.90;;;;;;5032938;28;20033;-71
2023/05/19 03:15:18;;;;;;;0.25;0.25;;;3.70;99.90;;;;;;5032989;28;20041;-71
2023/05/19 03:17:43;;;;;;;0.20;0.20;;;3.70;99.90;;;;;;5032999;28;20029;-71
2023/05/19 03:20:09;;;;;;;0.20;0.20;;;3.70;99.90;;;;;;5032894;28;20490;-71
2023/05/19 03:22:35;;;;;;;0.30;0.30;;;3.70;99.90;;;;;;5029273;28;20082;-72
2023/05/19 03:25:01;;;;;;;0.20;0.20;;;3.80;99.90;;;;;;5024489;28;20108;-71
2023/05/19 03:27:26;;;;;;;0.20;0.20;;;3.80;99.90;;;;;;5015248;28;20022;-71
2023/05/19 03:29:52;;;;;;;0.20;0.20;;;3.80;99.90;;;;;;5013004;28;20037;-71
2023/05/19 03:32:18;;;;;;;0.30;0.30;;;3.90;99.90;;;;;;5027700;28;20025;-72
2023/05/19 03:34:43;;;;;;;0.20;0.20;;;3.90;99.90;;;;;;5032378;28;20026;-71
2023/05/19 03:37:09;;;;;;;0.20;0.20;;;3.90;99.90;;;;;;5032733;28;20033;-71
2023/05/19 03:39:35;;;;;;;0.20;0.20;;;3.90;99.90;;;;;;5032006;28;20025;-71
2023/05/19 03:42:01;;;;;;;0.20;0.20;;;4.00;99.90;;;;;;5032628;28;20108;-71
2023/05/19 03:44:26;;;;;;;0.30;0.30;;;4.00;99.90;;;;;;5032330;28;20021;-71
2023/05/19 03:46:52;;;;;;;0.30;0.30;;;4.00;99.90;;;;;;5035719;28;20025;-71
2023/05/19 03:49:17;;;;;;;0.20;0.20;;;4.00;99.90;;;;;;5036671;28;20528;-71
2023/05/19 03:51:43;;;;;;;0.20;0.20;;;4.00;99.90;;;;;;5036759;28;20021;-71
2023/05/19 03:54:08;;;;;;;0.20;0.20;;;4.10;99.90;;;;;;5036764;28;20040;-71
2023/05/19 03:56:38;;;;;;;0.20;0.20;;;4.10;99.90;;;;;;5036487;28;20083;-71
2023/05/19 03:59:05;;;;;;;0.20;0.20;;;4.10;99.90;;;;;;5036390;28;20022;-71
2023/05/19 04:01:32;;;;;;;0.20;0.20;;;4.20;99.90;;;;;;5018986;28;20450;-71
2023/05/19 04:03:57;;;;;;;0.20;0.20;;;4.20;99.90;;;;;;5036319;28;20063;-71
2023/05/19 04:06:23;;;;;;;0.20;0.20;;;4.30;99.90;;;;;;5036851;28;20057;-71
2023/05/19 04:08:49;;;;;;;0.22;0.22;;;4.30;99.90;;;;;;5036312;28;20036;-71
2023/05/19 04:11:14;;;;;;;0.20;0.20;;;4.30;99.90;;;;;;5037023;28;20030;-71
2023/05/19 04:13:40;;;;;;;0.30;0.30;;;4.40;99.90;;;;;;5036088;28;20017;-71
2023/05/19 04:16:06;;;;;;;0.20;0.20;;;4.40;99.90;;;;;;5036397;28;20100;-71
2023/05/19 04:18:31;;;;;;;0.32;0.32;;;4.50;99.90;;;;;;5036029;28;20048;-71
2023/05/19 04:20:57;;;;;;;0.20;0.20;;;4.50;99.90;;;;;;5035996;28;20084;-71
2023/05/19 04:23:22;;;;;;;0.20;0.20;;;4.50;99.90;;;;;;5035749;28;20545;-71
2023/05/19 04:25:48;;;;;;;0.20;0.20;;;4.60;99.90;;;;;;5018223;28;20146;-71
2023/05/19 04:28:14;;;;;;;0.20;0.20;;;4.60;99.90;;;;;;5035886;28;20552;-71
2023/05/19 04:30:41;;;;;;;0.20;0.20;;;4.70;99.90;;;;;;5035886;28;20022;-71
2023/05/19 04:33:08;;;;;;;0.20;0.20;;;4.80;99.90;;;;;;5035754;28;20045;-71
2023/05/19 04:35:33;;;;;;;0.20;0.20;;;4.90;99.90;;;;;;5035742;28;20028;-71
2023/05/19 04:38:00;;;;;;;0.20;0.20;;;4.90;99.90;;;;;;5035743;28;20033;-71
2023/05/19 04:40:26;;;;;;;0.30;0.30;;;5.00;99.90;;;;;;5035624;28;20017;-71
2023/05/19 04:42:52;;;;;;;0.20;0.20;;;5.00;99.90;;;;;;5035828;28;20032;-71
2023/05/19 04:45:18;;;;;;;0.20;0.20;;;5.10;99.90;;;;;;5035583;28;20021;-71
2023/05/19 04:47:46;;;;;;;0.20;0.20;;;5.20;99.90;;;;;;5035553;28;20045;-71
2023/05/19 04:50:13;;;;;;;0.22;0.22;;;5.30;99.90;;;;;;5035486;28;20060;-71
2023/05/19 04:52:38;;;;;;;0.20;0.20;;;5.40;99.90;;;;;;5035863;28;20045;-71
2023/05/19 04:55:04;;;;;;;0.20;0.20;;;5.50;99.90;;;;;;5035590;28;20026;-71
2023/05/19 04:57:30;;;;;;;0.10;0.10;;;5.70;99.90;;;;;;5035590;28;20045;-71
2023/05/19 04:59:58;;;;;;;0.20;0.20;;;5.80;99.90;;;;;;5035435;28;20430;-71
2023/05/19 05:02:26;;;;;;;0.20;0.20;;;6.00;99.90;;;;;;5035415;28;20021;-71
2023/05/19 05:04:53;;;;;;;0.20;0.20;;;6.20;99.90;;;;;;5035338;28;20475;-71
2023/05/19 05:07:20;;;;;;;0.20;0.20;;;6.30;99.90;;;;;;5035124;28;20376;-71
2023/05/19 05:09:46;;;;;;;0.25;0.25;;;6.40;99.90;;;;;;5035361;28;20076;-71
2023/05/19 05:12:13;;;;;;;0.20;0.20;;;6.70;99.90;;;;;;5035077;28;20095;-71
2023/05/19 05:14:39;;;;;;;0.20;0.20;;;6.80;99.90;;;;;;5034951;28;20033;-71
2023/05/19 05:17:05;;;;;;;0.13;0.13;;;7.00;99.90;;;;;;5035287;28;20543;-71
2023/05/19 05:19:31;;;;;;;0.20;0.20;;;7.20;99.90;;;;;;5035225;28;20399;-71
2023/05/19 05:21:57;;;;;;;0.20;0.20;;;7.30;99.90;;;;;;5035146;28;20045;-71
2023/05/19 05:24:23;;;;;;;0.20;0.20;;;7.40;99.90;;;;;;5034701;28;20068;-71
2023/05/19 05:26:48;;;;;;;0.20;0.20;;;7.60;99.90;;;;;;5034818;28;20025;-71
2023/05/19 05:29:14;;;;;;;0.22;0.22;;;7.80;99.90;;;;;;5034761;28;20111;-71
2023/05/19 05:31:39;;;;;;;0.20;0.20;;;7.90;99.90;;;;;;5034701;28;20028;-71
2023/05/19 05:34:05;;;;;;;0.10;0.10;;;8.00;99.90;;;;;;5034617;28;20029;-71
2023/05/19 05:36:33;;;;;;;0.10;0.10;;;8.10;99.90;;;;;;5034658;28;20049;-72
2023/05/19 05:39:01;;;;;;;0.10;0.10;;;8.20;99.90;;;;;;5034498;28;20055;-71
2023/05/19 05:41:28;;;;;;;0.13;0.13;;;8.30;99.90;;;;;;5016760;28;20025;-71
2023/05/19 05:43:53;;;;;;;0.20;0.20;;;8.40;99.90;;;;;;5034697;28;20088;-71
2023/05/19 05:46:19;;;;;;;0.20;0.20;;;8.50;99.90;;;;;;5034626;28;20459;-72
2023/05/19 05:48:45;;;;;;;0.20;0.20;;;8.60;99.90;;;;;;5034400;28;20018;-71
2023/05/19 05:51:11;;;;;;;0.20;0.20;;;8.80;99.90;;;;;;5034201;28;20018;-72
2023/05/19 05:53:43;;;;;;;0.20;0.20;;;9.00;99.90;;;;;;5034192;28;20033;-71
2023/05/19 05:56:10;;;;;;;0.20;0.20;;;9.10;99.90;;;;;;5034441;28;20060;-71
2023/05/19 05:58:36;;;;;;;0.10;0.10;;;9.30;99.90;;;;;;5034213;28;20034;-71
2023/05/19 06:01:03;;;;;;;0.20;0.20;;;9.40;99.90;;;;;;5034097;28;20033;-72
2023/05/19 06:03:30;;;;;;;0.20;0.20;;;9.50;99.90;;;;;;5034613;28;20463;-72
2023/05/19 06:05:56;;;;;;;0.20;0.20;;;9.60;99.90;;;;;;5033504;28;20021;-72
2023/05/19 06:08:22;;;;;;;0.20;0.20;;;9.80;99.90;;;;;;5033474;28;20124;-71
2023/05/19 06:10:47;;;;;;;0.20;0.20;;;9.90;99.90;;;;;;5034277;28;20146;-71
2023/05/19 06:13:16;;;;;;;0.20;0.20;;;10.00;99.90;;;;;;5033821;28;20030;-71
2023/05/19 06:15:42;;;;;;;0.20;0.20;;;10.30;99.90;;;;;;5033905;28;20525;-71
2023/05/19 06:18:07;;;;;;;0.20;0.20;;;10.50;99.90;;;;;;5033804;28;20021;-71
2023/05/19 06:20:33;;;;;;;0.30;0.30;;;10.80;99.90;;;;;;5033721;28;20034;-72
2023/05/19 06:22:59;;;;;;;0.20;0.20;;;11.10;99.90;;;;;;5033573;28;20036;-72
2023/05/19 06:25:25;;;;;;;0.20;0.20;;;11.30;99.90;;;;;;5033723;28;20032;-72
2023/05/19 06:27:51;;;;;;;0.20;0.20;;;11.50;99.90;;;;;;5034296;28;20030;-71
2023/05/19 06:30:16;;;;;;;0.20;0.20;;;11.70;99.90;;;;;;5033899;28;20041;-72
2023/05/19 06:32:42;;;;;;;0.20;0.20;;;12.00;99.90;;;;;;5033728;28;20040;-72
2023/05/19 06:35:07;;;;;;;0.10;0.10;;;12.30;99.90;;;;;;5033824;28;20521;-72
2023/05/19 06:37:33;;;;;;;0.20;0.20;;;12.50;99.90;;;;;;5033528;28;20026;-72
2023/05/19 06:39:58;;;;;;;0.20;0.20;;;12.70;99.90;;;;;;5033615;28;20029;-72
2023/05/19 06:42:24;;;;;;;0.20;0.20;;;12.80;99.90;;;;;;5033604;28;20049;-72
2023/05/19 06:44:51;;;;;;;0.20;0.20;;;12.90;99.90;;;;;;5033529;28;20029;-72
2023/05/19 06:47:17;;;;;;;0.10;0.10;;;12.90;99.90;;;;;;5033644;28;20033;-72
2023/05/19 06:49:44;;;;;;;0.10;0.10;;;13.10;99.90;;;;;;5033284;28;20036;-72
2023/05/19 06:52:10;;;;;;;0.20;0.20;;;13.20;99.90;;;;;;5033338;28;20136;-72
2023/05/19 06:54:36;;;;;;;0.10;0.10;;;13.20;99.90;;;;;;5033170;28;20032;-71
2023/05/19 06:57:03;;;;;;;0.10;0.10;;;13.20;99.90;;;;;;5033198;28;20021;-72
2023/05/19 06:59:28;;;;;;;0.20;0.20;;;13.30;99.90;;;;;;5033293;28;20475;-72
2023/05/19 07:01:54;;;;;;;0.20;0.20;;;13.40;99.90;;;;;;5033425;28;20036;-72
2023/05/19 07:04:19;;;;;;;0.15;0.15;;;13.50;99.90;;;;;;5033055;28;20017;-72
2023/05/19 07:06:45;;;;;;;0.20;0.20;;;13.70;99.90;;;;;;5033363;28;20467;-72
2023/05/19 07:09:10;;;;;;;0.30;0.30;;;13.80;99.90;;;;;;5033169;28;20025;-72
2023/05/19 07:11:36;;;;;;;0.20;0.20;;;14.00;99.90;;;;;;5033584;28;20034;-72
2023/05/19 07:14:01;;;;;;;0.20;0.20;;;14.00;99.90;;;;;;5032896;28;20056;-72
2023/05/19 07:16:27;;;;;;;0.15;0.15;;;13.90;99.90;;;;;;5015251;28;20505;-72
2023/05/19 07:18:52;;;;;;;0.13;0.13;;;13.80;99.90;;;;;;5032861;28;20048;-72
2023/05/19 07:21:18;;;;;;;0.10;0.10;;;13.90;99.90;;;;;;5034907;28;20024;-72
2023/05/19 07:23:43;;;;;;;0.20;0.20;;;14.10;99.90;;;;;;5036891;28;20410;-72
2023/05/19 07:26:09;;;;;;;0.20;0.20;;;14.20;99.90;;;;;;5037271;28;20033;-71
2023/05/19 07:28:35;;;;;;;0.20;0.20;;;14.30;99.90;;;;;;5037300;28;20072;-71
2023/05/19 07:31:01;;;;;;;0.20;0.20;;;14.40;99.90;;;;;;5036951;28;20018;-71
2023/05/19 07:33:26;;;;;;;0.10;0.10;;;14.60;99.90;;;;;;5036923;28;20075;-71
2023/05/19 07:35:52;;;;;;;0.20;0.20;;;14.70;99.90;;;;;;5036843;28;20375;-72
2023/05/19 07:38:18;;;;;;;0.10;0.10;;;14.70;99.90;;;;;;5036832;28;20391;-72
2023/05/19 07:40:43;;;;;;;0.20;0.20;;;14.70;99.90;;;;;;5036726;28;20030;-71
2023/05/19 07:43:10;;;;;;;0.20;0.20;;;14.80;99.90;;;;;;5036689;28;20033;-71
2023/05/19 07:45:36;;;;;;;0.13;0.13;;;14.90;99.90;;;;;;5036725;28;20479;-71
2023/05/19 07:48:01;;;;;;;0.10;0.10;;;15.00;99.90;;;;;;5036689;28;20076;-71
2023/05/19 07:50:27;;;;;;;0.10;0.10;;;15.10;99.90;;;;;;5037061;28;20450;-71
2023/05/19 07:52:53;;;;;;;0.10;0.10;;;15.10;99.90;;;;;;5036460;28;20448;-71
2023/05/19 07:55:21;;;;;;;0.20;0.20;;;15.20;99.90;;;;;;5036549;28;20021;-72
2023/05/19 07:57:47;;;;;;;0.10;0.10;;;15.30;99.90;;;;;;5036500;28;20026;-71
2023/05/19 08:00:13;;;;;;;0.10;0.10;;;15.40;99.90;;;;;;5036665;28;20042;-72
2023/05/19 08:02:38;;;;;;;0.10;0.10;;;15.50;99.90;;;;;;5036283;28;20029;-71
2023/05/19 08:05:04;;;;;;;0.10;0.10;;;15.50;99.90;;;;;;5036972;28;20032;-71
2023/05/19 08:07:30;;;;;;;0.10;0.10;;;15.60;99.90;;;;;;5036353;28;20029;-71
2023/05/19 08:09:56;;;;;;;0.20;0.20;;;15.70;99.90;;;;;;5036521;28;20060;-71
2023/05/19 08:12:21;;;;;;;0.20;0.20;;;16.00;99.90;;;;;;5036165;28;20024;-71
2023/05/19 08:14:46;;;;;;;0.17;0.17;;;16.30;99.90;;;;;;5036473;28;20433;-71
2023/05/19 08:17:12;;;;;;;0.10;0.10;;;16.40;99.90;;;;;;5036071;28;20036;-73
2023/05/19 08:19:38;;;;;;;0.15;0.15;;;16.40;99.90;;;;;;5018322;28;20034;-73
2023/05/19 08:22:03;;;;;;;0.20;0.20;;;16.50;99.90;;;;;;5023833;28;20598;-72
2023/05/19 08:24:29;;;;;;;0.10;0.10;;;16.50;99.90;;;;;;5101303;23;20073;-78
2023/05/19 08:26:55;;;;;;;0.10;0.10;;;16.70;99.90;;;;;;5037051;28;20096;-77
2023/05/19 08:29:20;;;;;;;0.20;0.20;;;16.80;99.90;;;;;;5036488;28;20101;-74
2023/05/19 08:31:46;;;;;;;0.10;0.10;;;16.90;99.90;;;;;;5036025;28;20089;-77
2023/05/19 08:34:11;;;;;;;0.10;0.10;;;16.90;99.90;;;;;;5039599;28;20104;-77
2023/05/19 08:36:37;;;;;;;0.15;0.15;;;16.90;99.90;;;;;;5016414;28;20038;-77
2023/05/19 08:39:03;;;;;;;0.20;0.20;;;17.00;99.90;;;;;;5035714;28;20056;-77
2023/05/19 08:41:28;;;;;;;0.10;0.10;;;16.90;99.90;;;;;;5023334;28;20025;-77
2023/05/19 08:43:54;;;;;;;0.20;0.20;;;16.90;99.90;;;;;;5008916;28;20030;-76
2023/05/19 08:46:23;;;;;;;0.17;0.17;;;16.70;99.90;;;;;;4996020;28;20050;-75
2023/05/19 08:48:55;;;;;;;0.10;0.10;;;16.90;99.90;;;;;;4996237;28;20049;-76
2023/05/19 08:51:49;;;;;;;0.20;0.20;;;17.10;99.90;;;;;;5016468;28;20483;-76
2023/05/19 08:54:16;;;;;;;0.10;0.10;;;17.10;99.90;;;;;;5014767;28;20103;-77
2023/05/19 08:56:44;;;;;;;0.20;0.20;;;17.20;99.90;;;;;;5023020;28;20022;-76
2023/05/19 08:59:16;;;;;;;0.10;0.10;;;17.30;99.90;;;;;;5036629;28;20426;-77
2023/05/19 09:01:44;;;;;;;0.10;0.10;;;17.30;99.90;;;;;;5037890;28;20036;-77
2023/05/19 09:04:10;;;;;;;0.10;0.10;;;17.20;99.90;;;;;;5035027;28;20143;-77
2023/05/19 09:06:39;;;;;;;0.20;0.20;;;17.00;99.90;;;;;;5036191;28;20060;-78
2023/05/19 09:09:05;;;;;;;0.20;0.20;;;16.70;99.90;;;;;;5035537;28;20018;-77
2023/05/19 09:11:32;;;;;;;0.10;0.10;;;16.60;99.90;;;;;;5035109;28;20481;-77
2023/05/19 09:13:57;;;;;;;0.10;0.10;;;16.70;99.90;;;;;;5025505;28;20439;-77
2023/05/19 09:16:24;;;;;;;0.10;0.10;;;16.60;99.90;;;;;;5023177;28;20026;-77
2023/05/19 09:18:54;;;;;;;0.10;0.10;;;16.70;99.90;;;;;;5007104;28;20022;-77
2023/05/19 09:21:27;;;;;;;0.10;0.10;;;16.80;99.90;;;;;;5010634;28;20038;-77
2023/05/19 09:23:54;;;;;;;0.10;0.10;;;16.70;99.90;;;;;;5009771;28;20034;-77
2023/05/19 09:26:22;;;;;;;0.20;0.20;;;16.70;99.90;;;;;;5015099;28;20018;-77
2023/05/19 09:28:47;;;;;;;0.10;0.10;;;16.70;99.90;;;;;;5027474;28;20025;-78
2023/05/19 09:31:13;;;;;;;0.10;0.10;;;16.70;99.90;;;;;;5034796;28;20028;-77
2023/05/19 09:33:41;;;;;;;0.10;0.10;;;16.60;99.90;;;;;;5023095;28;20033;-77
2023/05/19 09:36:07;;;;;;;0.17;0.17;;;16.90;99.90;;;;;;5009880;28;20046;-77
2023/05/19 09:38:35;;;;;;;0.10;0.10;;;16.90;99.90;;;;;;5013679;28;20025;-77
2023/05/19 09:41:00;;;;;;;0.20;0.20;;;17.10;99.90;;;;;;5017683;28;20112;-77
2023/05/19 09:43:32;;;;;;;0.10;0.10;;;17.30;99.90;;;;;;5033469;28;20109;-77
2023/05/19 09:46:07;;;;;;;0.10;0.10;;;17.50;99.90;;;;;;5025080;28;20540;-77
2023/05/19 09:48:36;;;;;;;0.10;0.10;;;17.90;99.90;;;;;;5016590;28;20026;-77
2023/05/19 09:51:04;;;;;;;0.15;0.15;;;18.00;99.90;;;;;;5034472;28;20030;-76
2023/05/19 09:53:31;;;;;;;0.10;0.10;;;18.00;99.90;;;;;;5034116;28;20033;-77
2023/05/19 09:55:57;;;;;;;0.10;0.10;;;18.30;99.90;;;;;;5035181;28;20048;-77
2023/05/19 09:58:23;;;;;;;0.20;0.20;;;18.50;99.90;;;;;;5035019;28;20028;-77
2023/05/19 10:00:50;;;;;;;0.10;0.10;;;18.60;99.90;;;;;;5034691;28;20030;-77
2023/05/19 10:03:17;;;;;;;0.10;0.10;;;18.70;99.90;;;;;;5034177;28;20028;-77
2023/05/19 10:05:43;;;;;;;0.10;0.10;;;18.90;99.90;;;;;;5032886;28;20032;-77
2023/05/19 10:08:11;;;;;;;0.10;0.10;;;19.00;99.90;;;;;;5034175;28;20109;-77
2023/05/19 10:10:37;;;;;;;0.20;0.20;;;18.80;99.90;;;;;;5034059;28;20033;-77
2023/05/19 10:13:04;;;;;;;0.00;0.00;;;18.90;99.90;;;;;;5032931;28;20387;-77
2023/05/19 10:15:30;;;;;;;0.10;0.10;;;19.10;99.90;;;;;;5034277;28;20522;-77
2023/05/19 10:17:56;;;;;;;0.10;0.10;;;19.50;99.90;;;;;;5034096;28;20029;-78
2023/05/19 10:20:22;;;;;;;0.10;0.10;;;19.60;99.90;;;;;;5034113;28;20398;-77
2023/05/19 10:22:47;;;;;;;0.10;0.10;;;19.30;99.90;;;;;;5034006;28;20017;-78
2023/05/19 10:25:19;;;;;;;0.10;0.10;;;19.20;99.90;;;;;;5034686;28;20072;-78
2023/05/19 10:27:53;;;;;;;0.10;0.10;;;19.60;99.90;;;;;;5034763;28;20536;-77
2023/05/19 10:30:41;;;;;;;0.10;0.10;;;19.50;99.90;;;;;;5034060;28;20025;-77
2023/05/19 10:33:11;;;;;;;0.10;0.10;;;19.70;99.90;;;;;;5034419;28;20049;-78
2023/05/19 10:36:14;;;;;;;0.10;0.10;;;19.60;99.90;;;;;;5034422;28;20422;-78
2023/05/19 10:38:59;;;;;;;0.10;0.10;;;20.00;99.90;;;;;;5032888;28;20025;-77
2023/05/19 10:41:40;;;;;;;0.10;0.10;;;20.40;99.90;;;;;;5035568;28;20030;-78
2023/05/19 10:44:24;;;;;;;0.10;0.10;;;20.80;99.90;;;;;;5035007;28;20108;-77
2023/05/19 10:46:50;;;;;;;0.10;0.10;;;20.90;99.90;;;;;;5034581;28;20026;-78
2023/05/19 10:49:24;;;;;;;0.10;0.10;;;21.00;99.90;;;;;;5033974;28;20056;-77
2023/05/19 10:51:55;;;;;;;0.10;0.10;;;20.70;99.90;;;;;;5034900;28;20029;-78
2023/05/19 10:54:42;;;;;;;0.10;0.10;;;20.70;99.90;;;;;;5033927;28;20025;-77
2023/05/19 10:57:08;;;;;;;0.10;0.10;;;20.90;99.90;;;;;;5034786;28;20022;-76
2023/05/19 10:59:36;;;;;;;0.08;0.08;;;21.30;99.90;;;;;;5036887;28;20075;-78
2023/05/19 11:02:03;;;;;;;0.10;0.10;;;21.00;99.90;;;;;;5037822;28;20025;-77
2023/05/19 11:05:19;;;;;;;0.10;0.10;;;20.80;99.90;;;;;;5040313;28;20025;-78
2023/05/19 11:07:55;;;;;;;0.10;0.10;;;20.30;99.90;;;;;;5037352;28;20120;-78
2023/05/19 11:10:24;;;;;;;0.03;0.03;;;20.10;99.90;;;;;;5042023;28;20021;-77
2023/05/19 11:12:50;;;;;;;0.10;0.10;;;19.80;99.90;;;;;;5042279;28;20033;-78
2023/05/19 11:15:16;;;;;;;0.10;0.10;;;19.80;99.90;;;;;;5038553;28;20043;-77
2023/05/19 11:17:47;;;;;;;0.10;0.10;;;20.00;99.90;;;;;;5040449;28;20482;-78
2023/05/19 11:20:27;;;;;;;0.10;0.10;;;20.00;99.90;;;;;;5040030;28;20056;-76
2023/05/19 11:23:05;;;;;;;0.17;0.17;;;20.10;99.90;;;;;;5040473;28;20077;-77
2023/05/19 11:25:47;;;;;;;0.10;0.10;;;20.60;99.90;;;;;;5039494;28;20038;-77
2023/05/19 11:28:26;;;;;;;0.10;0.10;;;20.80;99.90;;;;;;5040160;28;20028;-77
2023/05/19 11:30:56;;;;;;;0.03;0.03;;;21.40;99.90;;;;;;5038868;28;20032;-77
2023/05/19 11:33:25;;;;;;;0.10;0.10;;;21.80;99.90;;;;;;5040308;28;20474;-77
2023/05/19 11:35:53;;;;;;;0.10;0.10;;;22.00;99.90;;;;;;5039602;28;20029;-77
2023/05/19 11:38:19;;;;;;;0.05;0.05;;;22.20;99.90;;;;;;5040470;28;20029;-76
2023/05/19 11:40:48;;;;;;;0.10;0.10;;;22.40;99.90;;;;;;5040366;28;20048;-78
2023/05/19 11:43:15;;;;;;;0.10;0.10;;;22.50;99.90;;;;;;5039643;28;20473;-78
2023/05/19 11:45:41;;;;;;;0.10;0.10;;;22.60;99.90;;;;;;5037995;28;20494;-78
2023/05/19 11:48:10;;;;;;;0.10;0.10;;;23.00;99.90;;;;;;5037946;28;20033;-78
2023/05/19 11:50:37;;;;;;;0.10;0.10;;;23.00;99.90;;;;;;5033910;28;20448;-76
2023/05/19 11:53:03;;;;;;;0.10;0.10;;;22.90;99.90;;;;;;5032157;28;20034;-77
2023/05/19 11:55:28;;;;;;;0.05;0.05;;;23.10;99.90;;;;;;5033508;28;20029;-77
2023/05/19 11:57:56;;;;;;;0.10;0.10;;;23.30;99.90;;;;;;5034406;28;20068;-76
2023/05/19 12:00:22;;;;;;;0.10;0.10;;;23.30;99.90;;;;;;5033267;28;20372;-77
2023/05/19 12:02:47;;;;;;;0.00;0.00;;;23.70;99.90;;;;;;5031486;28;20103;-77
2023/05/19 12:05:21;;;;;;;0.00;0.00;;;24.10;99.90;;;;;;5031759;28;20064;-77
2023/05/19 12:07:50;;;;;;;0.10;0.10;;;24.30;99.90;;;;;;5035427;28;20018;-77
2023/05/19 12:10:30;;;;;;;0.00;0.00;;;24.30;99.90;;;;;;5037330;28;20025;-77
2023/05/19 12:12:57;;;;;;;0.00;0.00;;;24.50;99.90;;;;;;5035521;28;20036;-77
2023/05/19 12:15:24;;;;;;;0.00;0.00;;;24.60;99.90;;;;;;5035384;28;20117;-77
2023/05/19 12:18:00;;;;;;;0.00;0.00;;;25.20;99.90;;;;;;5036919;28;20029;-77
2023/05/19 12:20:27;;;;;;;0.00;0.00;;;25.10;99.20;;;;;;5036523;28;20120;-74
2023/05/19 12:22:57;;;;;;;0.00;0.00;;;25.10;97.70;;;;;;5036083;28;20029;-76
2023/05/19 12:25:23;;;;;;;0.00;0.00;;;24.90;99.30;;;;;;5036145;28;20021;-75
2023/05/19 12:27:51;;;;;;;0.00;0.00;;;25.30;99.90;;;;;;5036082;28;20049;-75
2023/05/19 12:30:17;;;;;;;0.00;0.00;;;25.50;99.90;;;;;;5035990;28;20075;-75
2023/05/19 12:32:42;;;;;;;0.10;0.10;;;24.80;99.90;;;;;;5035823;28;20115;-75
2023/05/19 12:35:09;;;;;;;0.00;0.00;;;24.10;99.90;;;;;;5035887;28;20103;-74
2023/05/19 12:37:35;;;;;;;0.00;0.00;;;23.70;99.90;;;;;;5035848;28;20025;-74
2023/05/19 12:40:02;;;;;;;0.00;0.00;;;23.30;99.90;;;;;;5035995;28;20537;-75
2023/05/19 12:42:34;;;;;;;0.00;0.00;;;23.80;99.90;;;;;;5035671;28;20045;-74
2023/05/19 12:45:03;;;;;;;0.00;0.00;;;24.30;99.90;;;;;;5035741;28;20029;-75
2023/05/19 12:47:35;;;;;;;0.00;0.00;;;24.70;99.90;;;;;;5035951;28;20029;-75
2023/05/19 12:50:00;;;;;;;0.00;0.00;;;25.20;99.90;;;;;;5035867;28;20033;-75
2023/05/19 12:52:28;;;;;;;0.00;0.00;;;25.40;99.90;;;;;;5035570;28;20025;-75
2023/05/19 12:55:03;;;;;;;0.00;0.00;;;25.70;97.40;;;;;;5035558;28;20502;-75
2023/05/19 12:57:31;;;;;;;0.00;0.00;;;25.90;99.80;;;;;;5035507;28;20079;-74